createdAt,value
2022-12-11T00:01:14.660Z,100.00
2022-12-11T00:03:42.587Z,100.00
2022-12-11T00:06:12.713Z,100.00
2022-12-11T00:08:40.836Z,100.00
2022-12-11T00:11:16.473Z,100.00
2022-12-11T00:13:44.496Z,100.00
2022-12-11T00:16:13.586Z,100.00
2022-12-11T00:18:41.475Z,100.00
2022-12-11T00:21:17.405Z,100.00
2022-12-11T00:23:44.888Z,100.00
2022-12-11T00:26:17.295Z,100.00
2022-12-11T00:28:50.862Z,100.00
2022-12-11T00:31:19.666Z,100.00
2022-12-11T00:33:49.095Z,100.00
2022-12-11T00:36:20.407Z,100.00
2022-12-11T00:38:49.667Z,100.00
2022-12-11T00:41:17.948Z,100.00
2022-12-11T00:43:47.669Z,100.00
2022-12-11T00:46:15.466Z,100.00
2022-12-11T00:48:45.389Z,100.00
2022-12-11T00:51:15.718Z,100.00
2022-12-11T00:53:43.410Z,100.00
2022-12-11T00:56:16.992Z,100.00
2022-12-11T00:58:44.652Z,100.00
2022-12-11T01:01:16.839Z,100.00
2022-12-11T01:03:48.365Z,100.00
2022-12-11T01:06:18.012Z,100.00
2022-12-11T01:08:46.422Z,100.00
2022-12-11T01:11:15.980Z,100.00
2022-12-11T01:13:43.916Z,100.00
2022-12-11T01:16:16.566Z,100.00
2022-12-11T01:18:44.167Z,100.00
2022-12-11T01:21:15.820Z,100.00
2022-12-11T01:23:43.421Z,100.00
2022-12-11T01:26:13.338Z,100.00
2022-12-11T01:28:41.541Z,100.00
2022-12-11T01:31:15.133Z,100.00
2022-12-11T01:33:42.702Z,100.00
2022-12-11T01:36:21.514Z,100.00
2022-12-11T01:38:50.347Z,100.00
2022-12-11T01:41:20.399Z,100.00
2022-12-11T01:44:08.896Z,100.00
2022-12-11T01:46:39.723Z,100.00
2022-12-11T01:49:10.899Z,100.00
2022-12-11T01:51:47.255Z,100.00
2022-12-11T01:54:17.477Z,100.00
2022-12-11T01:56:47.149Z,100.00
2022-12-11T01:59:20.096Z,100.00
2022-12-11T02:01:55.419Z,100.00
2022-12-11T02:04:23.765Z,100.00
2022-12-11T02:06:52.884Z,100.00
2022-12-11T02:09:28.027Z,100.00
2022-12-11T02:12:11.733Z,100.00
2022-12-11T02:14:58.208Z,100.00
2022-12-11T02:17:49.898Z,100.00
2022-12-11T02:20:23.212Z,100.00
2022-12-11T02:23:28.349Z,100.00
2022-12-11T02:26:08.884Z,100.00
2022-12-11T02:28:44.724Z,100.00
2022-12-11T02:31:23.004Z,100.00
2022-12-11T02:34:00.049Z,100.00
2022-12-11T02:36:32.381Z,100.00
2022-12-11T02:39:04.600Z,100.00
2022-12-11T02:41:35.388Z,100.00
2022-12-11T02:44:04.234Z,100.00
2022-12-11T02:46:37.064Z,100.00
2022-12-11T02:49:10.932Z,100.00
2022-12-11T02:51:45.493Z,100.00
2022-12-11T02:54:22.009Z,100.00
2022-12-11T02:56:58.609Z,100.00
2022-12-11T02:59:33.012Z,100.00
2022-12-11T03:02:00.629Z,100.00
2022-12-11T03:04:28.208Z,100.00
2022-12-11T03:06:59.999Z,100.00
2022-12-11T03:09:29.363Z,100.00
2022-12-11T03:11:59.127Z,100.00
2022-12-11T03:14:26.648Z,100.00
2022-12-11T03:17:06.146Z,100.00
2022-12-11T03:19:39.504Z,100.00
2022-12-11T03:22:44.881Z,100.00
2022-12-11T03:25:21.112Z,100.00
2022-12-11T03:27:59.550Z,100.00
2022-12-11T03:30:30.010Z,100.00
2022-12-11T03:33:04.042Z,100.00
2022-12-11T03:35:40.028Z,100.00
2022-12-11T03:38:12.735Z,100.00
2022-12-11T03:40:46.936Z,100.00
2022-12-11T03:43:16.192Z,100.00
2022-12-11T03:45:46.615Z,100.00
2022-12-11T03:48:15.925Z,100.00
2022-12-11T03:50:44.631Z,100.00
2022-12-11T03:53:13.926Z,100.00
2022-12-11T03:55:42.625Z,100.00
2022-12-11T03:58:10.204Z,100.00
2022-12-11T04:00:38.106Z,100.00
2022-12-11T04:03:14.617Z,100.00
2022-12-11T04:05:50.028Z,100.00
2022-12-11T04:08:18.902Z,100.00
2022-12-11T04:10:46.533Z,100.00
2022-12-11T04:13:19.071Z,100.00
2022-12-11T04:15:45.698Z,100.00
2022-12-11T04:18:30.992Z,100.00
2022-12-11T04:21:18.601Z,100.00
2022-12-11T04:24:03.526Z,100.00
2022-12-11T04:26:31.097Z,100.00
2022-12-11T04:28:58.601Z,100.00
2022-12-11T04:31:26.516Z,100.00
2022-12-11T04:33:54.064Z,100.00
2022-12-11T04:36:24.061Z,100.00
2022-12-11T04:38:54.213Z,100.00
2022-12-11T04:41:21.793Z,100.00
2022-12-11T04:43:49.332Z,100.00
2022-12-11T04:46:20.524Z,100.00
2022-12-11T04:48:52.417Z,100.00
2022-12-11T04:51:23.572Z,100.00
2022-12-11T04:53:51.129Z,100.00
2022-12-11T04:56:18.615Z,100.00
2022-12-11T04:58:47.206Z,100.00
2022-12-11T05:01:18.714Z,100.00
2022-12-11T05:03:46.392Z,100.00
2022-12-11T05:06:15.205Z,100.00
2022-12-11T05:08:46.305Z,100.00
2022-12-11T05:11:16.294Z,100.00
2022-12-11T05:13:46.941Z,100.00
2022-12-11T05:16:19.265Z,100.00
2022-12-11T05:18:47.444Z,100.00
2022-12-11T05:21:16.252Z,100.00
2022-12-11T05:23:43.840Z,100.00
2022-12-11T05:26:21.221Z,100.00
2022-12-11T05:28:53.253Z,100.00
2022-12-11T05:31:24.357Z,100.00
2022-12-11T05:33:52.338Z,100.00
2022-12-11T05:36:26.106Z,100.00
2022-12-11T05:38:54.309Z,100.00
2022-12-11T05:41:23.926Z,100.00
2022-12-11T05:43:52.136Z,100.00
2022-12-11T05:46:22.622Z,100.00
2022-12-11T05:48:56.060Z,100.00
2022-12-11T05:51:24.193Z,100.00
2022-12-11T05:53:53.356Z,100.00
2022-12-11T05:56:24.029Z,100.00
2022-12-11T05:58:52.027Z,100.00
2022-12-11T06:01:29.150Z,100.00
2022-12-11T06:03:57.692Z,100.00
2022-12-11T06:06:28.408Z,100.00
2022-12-11T06:09:00.112Z,100.00
2022-12-11T06:11:29.966Z,100.00
2022-12-11T06:14:00.380Z,100.00
2022-12-11T06:16:27.998Z,100.00
2022-12-11T06:18:58.199Z,100.00
2022-12-11T06:21:31.346Z,100.00
2022-12-11T06:24:03.566Z,100.00
2022-12-11T06:26:32.054Z,100.00
2022-12-11T06:28:59.773Z,100.00
2022-12-11T06:31:27.427Z,100.00
2022-12-11T06:33:55.378Z,100.00
2022-12-11T06:36:24.929Z,100.00
2022-12-11T06:38:53.056Z,100.00
2022-12-11T06:41:20.618Z,100.00
2022-12-11T06:43:48.198Z,100.00
2022-12-11T06:46:18.979Z,100.00
2022-12-11T06:48:47.277Z,100.00
2022-12-11T06:51:18.233Z,100.00
2022-12-11T06:53:46.838Z,100.00
2022-12-11T06:56:17.994Z,100.00
2022-12-11T06:58:48.226Z,100.00
2022-12-11T07:01:19.315Z,100.00
2022-12-11T07:03:47.300Z,100.00
2022-12-11T07:06:16.002Z,100.00
2022-12-11T07:08:43.592Z,100.00
2022-12-11T07:11:15.749Z,100.00
2022-12-11T07:13:45.109Z,100.00
2022-12-11T07:16:16.641Z,100.00
2022-12-11T07:18:48.715Z,100.00
2022-12-11T07:21:18.160Z,100.00
2022-12-11T07:23:45.780Z,100.00
2022-12-11T07:26:16.046Z,100.00
2022-12-11T07:28:44.639Z,100.00
2022-12-11T07:31:19.237Z,100.00
2022-12-11T07:33:47.120Z,100.00
2022-12-11T07:36:16.245Z,100.00
2022-12-11T07:38:46.381Z,99.87
2022-12-11T07:41:15.902Z,99.39
2022-12-11T07:43:44.014Z,99.18
2022-12-11T07:46:17.187Z,98.91
2022-12-11T07:48:46.964Z,98.66
2022-12-11T07:51:17.970Z,98.41
2022-12-11T07:53:47.971Z,98.21
2022-12-11T07:56:16.663Z,98.20
2022-12-11T07:58:44.201Z,97.44
2022-12-11T08:01:22.952Z,97.41
2022-12-11T08:03:51.220Z,97.75
2022-12-11T08:06:21.324Z,97.52
2022-12-11T08:08:49.094Z,97.37
2022-12-11T08:11:16.624Z,97.12
2022-12-11T08:13:46.586Z,96.61
2022-12-11T08:16:16.158Z,96.74
2022-12-11T08:18:47.960Z,96.55
2022-12-11T08:21:28.204Z,95.95
2022-12-11T08:23:56.300Z,96.01
2022-12-11T08:26:26.423Z,95.98
2022-12-11T08:28:54.644Z,95.77
2022-12-11T08:31:27.375Z,95.84
2022-12-11T08:33:57.720Z,95.55
2022-12-11T08:36:26.267Z,95.52
2022-12-11T08:38:55.877Z,95.75
2022-12-11T08:41:28.643Z,95.20
2022-12-11T08:44:01.672Z,95.20
2022-12-11T08:46:32.721Z,95.08
2022-12-11T08:49:00.605Z,94.66
2022-12-11T08:51:34.001Z,94.83
2022-12-11T08:54:02.359Z,94.72
2022-12-11T08:56:30.695Z,94.58
2022-12-11T08:59:04.437Z,94.56
2022-12-11T09:01:32.755Z,94.45
2022-12-11T09:04:00.357Z,94.41
2022-12-11T09:06:30.241Z,94.35
2022-12-11T09:09:01.261Z,94.30
2022-12-11T09:11:33.431Z,94.19
2022-12-11T09:14:07.371Z,93.97
2022-12-11T09:16:39.619Z,93.27
2022-12-11T09:19:09.346Z,93.55
2022-12-11T09:21:36.950Z,93.41
2022-12-11T09:26:50.447Z,93.06
2022-12-11T09:29:18.033Z,93.41
2022-12-11T09:31:46.473Z,93.64
2022-12-11T09:34:15.036Z,93.06
2022-12-11T09:36:44.978Z,93.39
2022-12-11T09:39:16.569Z,93.22
2022-12-11T09:42:08.867Z,92.81
2022-12-11T09:45:01.588Z,92.73
2022-12-11T09:47:37.142Z,92.45
2022-12-11T09:50:10.507Z,92.31
2022-12-11T09:53:02.371Z,92.10
2022-12-11T09:56:02.265Z,91.65
2022-12-11T09:58:57.536Z,91.51
2022-12-11T10:01:51.045Z,91.41
2022-12-11T10:04:54.219Z,91.31
2022-12-11T10:07:27.660Z,91.02
2022-12-11T10:10:08.953Z,90.74
2022-12-11T10:13:01.213Z,90.29
2022-12-11T10:15:40.857Z,90.38
2022-12-11T10:18:16.270Z,90.28
2022-12-11T10:20:45.296Z,90.26
2022-12-11T10:23:35.463Z,90.22
2022-12-11T10:26:21.716Z,89.71
2022-12-11T10:28:49.550Z,89.54
2022-12-11T10:31:17.115Z,89.51
2022-12-11T10:33:57.046Z,89.65
2022-12-11T10:36:39.771Z,89.66
2022-12-11T10:39:16.392Z,90.01
2022-12-11T10:41:46.122Z,90.03
2022-12-11T10:44:16.706Z,90.00
2022-12-11T10:46:45.186Z,89.98
2022-12-11T10:49:29.896Z,89.89
2022-12-11T10:52:01.414Z,89.96
2022-12-11T10:54:47.096Z,90.12
2022-12-11T10:57:16.161Z,89.96
2022-12-11T10:59:49.051Z,89.99
2022-12-11T11:02:33.554Z,89.90
2022-12-11T11:05:14.459Z,89.70
2022-12-11T11:07:42.657Z,89.51
2022-12-11T11:10:13.734Z,89.46
2022-12-11T11:12:47.169Z,89.62
2022-12-11T11:15:23.680Z,89.37
2022-12-11T11:17:57.043Z,89.40
2022-12-11T11:20:28.126Z,89.48
2022-12-11T11:23:01.662Z,89.04
2022-12-11T11:25:34.865Z,89.12
2022-12-11T11:28:09.719Z,88.87
2022-12-11T11:30:40.716Z,88.92
2022-12-11T11:33:22.573Z,88.81
2022-12-11T11:35:59.456Z,88.92
2022-12-11T11:38:54.846Z,88.72
2022-12-11T11:41:28.932Z,88.89
2022-12-11T11:44:00.411Z,88.97
2022-12-11T11:46:39.452Z,88.96
2022-12-11T11:49:42.125Z,88.83
2022-12-11T11:52:47.615Z,88.93
2022-12-11T11:55:22.390Z,88.95
2022-12-11T11:58:09.695Z,88.86
2022-12-11T12:00:37.321Z,88.94
2022-12-11T12:03:15.442Z,88.97
2022-12-11T12:05:46.142Z,88.87
2022-12-11T12:08:22.849Z,88.87
2022-12-11T12:11:22.804Z,88.84
2022-12-11T12:13:57.729Z,88.81
2022-12-11T12:19:27.863Z,88.77
2022-12-11T12:21:55.959Z,88.97
2022-12-11T12:24:45.183Z,88.94
2022-12-11T12:27:51.047Z,88.93
2022-12-11T12:30:21.836Z,89.04
2022-12-11T12:33:28.948Z,88.79
2022-12-11T12:36:22.611Z,88.79
2022-12-11T12:39:03.404Z,88.72
2022-12-11T12:41:52.019Z,88.70
2022-12-11T12:44:23.231Z,88.75
2022-12-11T12:46:51.057Z,88.86
2022-12-11T12:49:48.756Z,88.63
2022-12-11T12:52:37.510Z,88.35
2022-12-11T12:55:27.733Z,88.39
2022-12-11T12:57:58.521Z,87.86
2022-12-11T13:00:32.268Z,87.98
2022-12-11T13:03:03.639Z,88.02
2022-12-11T13:05:35.156Z,88.09
2022-12-11T13:08:06.025Z,87.83
2022-12-11T13:10:38.737Z,87.89
2022-12-11T13:13:27.168Z,87.95
2022-12-11T13:15:54.721Z,87.86
2022-12-11T13:18:38.250Z,87.59
2022-12-11T13:21:40.409Z,87.62
2022-12-11T13:24:14.163Z,87.39
2022-12-11T13:26:42.681Z,87.14
2022-12-11T13:29:29.377Z,87.39
2022-12-11T13:32:03.981Z,87.60
2022-12-11T13:34:38.776Z,87.41
2022-12-11T13:37:09.077Z,87.39
2022-12-11T13:39:40.098Z,87.52
2022-12-11T13:42:21.390Z,87.50
2022-12-11T13:44:50.356Z,87.25
2022-12-11T13:47:20.406Z,87.40
2022-12-11T13:49:54.808Z,87.47
2022-12-11T13:52:25.882Z,87.09
2022-12-11T13:54:55.716Z,87.12
2022-12-11T13:57:26.170Z,87.23
2022-12-11T13:59:55.865Z,87.09
2022-12-11T14:02:42.530Z,87.13
2022-12-11T14:05:12.664Z,87.36
2022-12-11T14:07:48.033Z,87.29
2022-12-11T14:10:21.556Z,87.31
2022-12-11T14:13:02.769Z,87.30
2022-12-11T14:15:32.996Z,87.20
2022-12-11T14:18:01.822Z,87.31
2022-12-11T14:20:32.368Z,87.57
2022-12-11T14:23:09.289Z,87.55
2022-12-11T14:25:36.778Z,87.67
2022-12-11T14:28:16.539Z,87.78
2022-12-11T14:30:50.941Z,87.69
2022-12-11T14:33:25.626Z,87.81
2022-12-11T14:35:55.302Z,87.82
2022-12-11T14:38:36.126Z,88.26
2022-12-11T14:41:15.363Z,88.90
2022-12-11T14:43:49.395Z,89.23
2022-12-11T14:46:23.283Z,89.80
2022-12-11T14:49:01.101Z,90.09
2022-12-11T14:51:35.254Z,91.26
2022-12-11T14:54:04.523Z,90.93
2022-12-11T14:56:32.879Z,91.35
2022-12-11T14:59:10.108Z,91.73
2022-12-11T15:01:39.227Z,92.81
2022-12-11T15:04:15.672Z,92.46
2022-12-11T15:06:49.083Z,92.50
2022-12-11T15:09:29.730Z,92.56
2022-12-11T15:12:00.470Z,92.50
2022-12-11T15:14:29.598Z,92.62
2022-12-11T15:16:58.600Z,92.72
2022-12-11T15:19:33.750Z,92.14
2022-12-11T15:22:07.538Z,92.17
2022-12-11T15:24:43.264Z,92.06
2022-12-11T15:27:24.229Z,91.93
2022-12-11T15:29:51.897Z,92.00
2022-12-11T15:32:21.689Z,91.68
2022-12-11T15:34:53.783Z,91.86
2022-12-11T15:37:30.149Z,91.72
2022-12-11T15:40:00.504Z,91.79
2022-12-11T15:42:35.435Z,91.39
2022-12-11T15:45:03.876Z,91.66
2022-12-11T15:47:32.690Z,91.40
2022-12-11T15:50:03.326Z,90.97
2022-12-11T15:52:31.050Z,91.26
2022-12-11T15:55:01.013Z,90.94
2022-12-11T15:57:28.626Z,90.66
2022-12-11T15:59:56.445Z,90.29
2022-12-11T16:02:26.741Z,90.28
2022-12-11T16:04:55.261Z,89.91
2022-12-11T16:07:25.391Z,89.65
2022-12-11T16:09:53.829Z,89.42
2022-12-11T16:12:21.597Z,89.33
2022-12-11T16:14:49.188Z,89.18
2022-12-11T16:17:17.091Z,88.67
2022-12-11T16:19:45.341Z,88.73
2022-12-11T16:22:15.289Z,88.54
2022-12-11T16:24:43.116Z,88.13
2022-12-11T16:27:11.094Z,88.09
2022-12-11T16:29:40.978Z,87.71
2022-12-11T16:32:09.868Z,87.92
2022-12-11T16:34:40.028Z,87.71
2022-12-11T16:37:09.073Z,87.20
2022-12-11T16:39:39.842Z,87.29
2022-12-11T16:42:08.667Z,87.37
2022-12-11T16:44:39.657Z,86.60
2022-12-11T16:47:13.721Z,86.93
2022-12-11T16:49:42.038Z,86.88
2022-12-11T16:52:11.343Z,86.81
2022-12-11T16:54:40.203Z,86.85
2022-12-11T16:57:09.947Z,86.69
2022-12-11T16:59:37.901Z,86.67
2022-12-11T17:02:10.005Z,86.66
2022-12-11T17:04:40.202Z,86.78
2022-12-11T17:07:08.345Z,86.29
2022-12-11T17:09:36.360Z,86.64
2022-12-11T17:12:04.278Z,86.28
2022-12-11T17:14:32.339Z,86.25
2022-12-11T17:16:59.956Z,86.23
2022-12-11T17:19:27.668Z,86.22
2022-12-11T17:21:56.095Z,86.24
2022-12-11T17:24:23.728Z,86.21
2022-12-11T17:26:51.300Z,85.91
2022-12-11T17:29:20.028Z,86.10
2022-12-11T17:31:48.471Z,85.86
2022-12-11T17:34:16.989Z,86.23
2022-12-11T17:36:46.491Z,86.22
2022-12-11T17:39:14.105Z,86.02
2022-12-11T17:41:41.638Z,85.82
2022-12-11T17:44:09.606Z,85.58
2022-12-11T17:46:37.231Z,85.76
2022-12-11T17:49:06.289Z,85.76
2022-12-11T17:51:34.022Z,85.63
2022-12-11T17:54:01.863Z,85.85
2022-12-11T17:56:29.420Z,85.94
2022-12-11T17:58:57.024Z,85.83
2022-12-11T18:01:26.788Z,86.10
2022-12-11T18:03:56.808Z,86.07
2022-12-11T18:06:24.659Z,86.29
2022-12-11T18:08:54.764Z,86.07
2022-12-11T18:11:22.768Z,86.06
2022-12-11T18:13:51.276Z,85.98
2022-12-11T18:16:19.282Z,85.91
2022-12-11T18:18:48.283Z,86.08
2022-12-11T18:21:22.560Z,86.07
2022-12-11T18:23:51.083Z,86.10
2022-12-11T18:26:20.011Z,86.18
2022-12-11T18:28:48.932Z,86.25
2022-12-11T18:31:19.492Z,86.09
2022-12-11T18:33:50.521Z,86.14
2022-12-11T18:36:19.594Z,86.30
2022-12-11T18:38:48.096Z,86.06
2022-12-11T18:41:18.640Z,86.21
2022-12-11T18:43:46.389Z,86.30
2022-12-11T18:46:17.022Z,86.21
2022-12-11T18:48:45.765Z,86.21
2022-12-11T18:51:17.228Z,86.17
2022-12-11T18:53:45.273Z,86.20
2022-12-11T18:56:16.028Z,86.15
2022-12-11T18:58:48.736Z,85.73
2022-12-11T19:01:22.981Z,85.93
2022-12-11T19:03:51.493Z,86.08
2022-12-11T19:06:28.601Z,86.21
2022-12-11T19:08:58.459Z,86.19
2022-12-11T19:11:28.400Z,86.01
2022-12-11T19:13:58.988Z,85.70
2022-12-11T19:16:30.650Z,85.89
2022-12-11T19:19:03.552Z,85.86
2022-12-11T19:21:32.009Z,85.69
2022-12-11T19:24:00.286Z,85.97
2022-12-11T19:26:28.005Z,86.19
2022-12-11T19:29:00.056Z,86.05
2022-12-11T19:31:32.523Z,86.34
2022-12-11T19:34:01.025Z,86.45
2022-12-11T19:36:30.416Z,86.58
2022-12-11T19:39:01.935Z,86.73
2022-12-11T19:41:31.369Z,86.73
2022-12-11T19:44:00.068Z,86.79
2022-12-11T19:46:30.732Z,86.95
2022-12-11T19:48:59.842Z,86.93
2022-12-11T19:51:40.960Z,87.07
2022-12-11T19:54:12.394Z,86.85
2022-12-11T19:56:39.985Z,86.91
2022-12-11T19:59:10.822Z,86.94
2022-12-11T20:01:39.141Z,86.93
2022-12-11T20:04:15.204Z,86.86
2022-12-11T20:06:45.613Z,87.11
2022-12-11T20:09:14.234Z,86.93
2022-12-11T20:11:44.339Z,87.07
2022-12-11T20:14:24.073Z,87.09
2022-12-11T20:19:40.493Z,87.38
2022-12-11T20:22:11.146Z,87.54
2022-12-11T20:24:38.703Z,87.77
2022-12-11T20:27:06.246Z,87.80
2022-12-11T20:29:34.035Z,87.61
2022-12-11T20:32:03.885Z,87.77
2022-12-11T20:34:34.009Z,87.49
2022-12-11T20:37:01.565Z,87.58
2022-12-11T20:39:29.125Z,87.21
2022-12-11T20:41:56.654Z,87.39
2022-12-11T20:44:24.135Z,87.51
2022-12-11T20:46:51.808Z,87.66
2022-12-11T20:49:19.615Z,87.64
2022-12-11T20:51:51.704Z,87.58
2022-12-11T20:54:19.249Z,87.56
2022-12-11T20:56:46.982Z,87.52
2022-12-11T20:59:17.049Z,87.53
2022-12-11T21:01:45.225Z,87.64
2022-12-11T21:04:12.882Z,87.70
2022-12-11T21:06:42.006Z,87.90
2022-12-11T21:09:15.708Z,88.08
2022-12-11T21:11:43.233Z,88.03
2022-12-11T21:14:11.405Z,88.14
2022-12-11T21:16:41.806Z,88.33
2022-12-11T21:19:15.119Z,88.16
2022-12-11T21:21:45.213Z,88.17
2022-12-11T21:24:19.161Z,88.22
2022-12-11T21:26:47.568Z,88.33
2022-12-11T21:29:15.840Z,88.54
2022-12-11T21:31:44.488Z,88.52
2022-12-11T21:34:12.113Z,89.07
2022-12-11T21:36:41.772Z,89.00
2022-12-11T21:39:13.013Z,89.55
2022-12-11T21:41:41.908Z,89.27
2022-12-11T21:46:57.409Z,89.30
2022-12-11T21:49:24.949Z,89.53
2022-12-11T21:51:54.836Z,89.82
2022-12-11T21:54:22.346Z,89.89
2022-12-11T21:56:52.168Z,89.89
2022-12-11T21:59:19.705Z,89.87
2022-12-11T22:01:47.788Z,89.81
2022-12-11T22:04:18.849Z,89.83
2022-12-11T22:06:47.080Z,89.78
2022-12-11T22:09:17.820Z,89.88
2022-12-11T22:11:52.514Z,89.83
2022-12-11T22:14:22.682Z,89.99
2022-12-11T22:16:52.763Z,89.98
2022-12-11T22:19:20.304Z,90.55
2022-12-11T22:21:48.041Z,91.02
2022-12-11T22:24:15.599Z,91.31
2022-12-11T22:26:43.144Z,92.06
2022-12-11T22:29:10.890Z,91.76
2022-12-11T22:31:38.429Z,92.17
2022-12-11T22:34:06.037Z,92.28
2022-12-11T22:36:35.780Z,93.03
2022-12-11T22:39:03.283Z,92.68
2022-12-11T22:41:33.184Z,93.49
2022-12-11T22:44:01.182Z,92.62
2022-12-11T22:46:31.056Z,92.52
2022-12-11T22:48:59.871Z,92.55
2022-12-11T22:51:27.442Z,92.03
2022-12-11T22:53:56.102Z,91.92
2022-12-11T22:56:23.656Z,92.21
2022-12-11T22:58:53.812Z,91.97
2022-12-11T23:01:23.560Z,91.96
2022-12-11T23:03:52.902Z,91.53
2022-12-11T23:06:25.887Z,91.21
2022-12-11T23:08:57.833Z,91.41
2022-12-11T23:11:29.076Z,90.74
2022-12-11T23:14:01.575Z,90.53
2022-12-11T23:16:29.499Z,90.63
2022-12-11T23:18:58.661Z,91.02
2022-12-11T23:21:27.893Z,90.82
2022-12-11T23:23:56.211Z,90.96
2022-12-11T23:26:24.565Z,91.17
2022-12-11T23:28:54.800Z,91.39
2022-12-11T23:31:22.919Z,91.39
2022-12-11T23:33:50.656Z,91.38
2022-12-11T23:36:18.789Z,91.17
2022-12-11T23:38:51.050Z,91.26
2022-12-11T23:41:22.073Z,91.04
2022-12-11T23:43:49.569Z,91.06
2022-12-11T23:46:23.491Z,90.83
2022-12-11T23:48:55.615Z,90.37
2022-12-11T23:51:24.792Z,90.54
2022-12-11T23:53:53.082Z,90.16
2022-12-11T23:56:24.476Z,89.98
2022-12-11T23:58:52.668Z,89.80
